Time;durP1;ratioP1;P1;durP2;ratioP2;P2;SDS_P1;SDS_P2;PMS_P1;PMS_P2;Temp;Humidity;BMP_temperature;BMP_pressure;BME280_temperature;BME280_humidity;BME280_pressure;Samples;Min_cycle;Max_cycle;Signal;HPM_P1;HPM_P2
2022/12/09 00:01:14;;;;;;;3.20;2.23;;;-3.30;99.90;;;;;;5031000;28;20241;-68
2022/12/09 00:03:40;;;;;;;6.20;3.53;;;-3.20;99.90;;;;;;5030058;28;20213;-68
2022/12/09 00:06:09;;;;;;;4.53;2.53;;;-3.20;99.90;;;;;;5033023;28;20424;-68
2022/12/09 00:08:35;;;;;;;4.90;2.27;;;-3.20;99.90;;;;;;5031222;28;20459;-68
2022/12/09 00:11:01;;;;;;;6.40;2.70;;;-3.20;99.90;;;;;;5031942;28;20433;-68
2022/12/09 00:13:27;;;;;;;9.43;3.10;;;-3.20;99.90;;;;;;5032009;28;20433;-68
2022/12/09 00:15:52;;;;;;;5.90;2.67;;;-3.20;99.90;;;;;;5031963;28;20940;-68
2022/12/09 00:18:18;;;;;;;5.97;2.77;;;-3.20;99.90;;;;;;5031771;28;20604;-68
2022/12/09 00:20:43;;;;;;;6.83;2.40;;;-3.10;99.90;;;;;;5029601;28;20190;-69
2022/12/09 00:23:09;;;;;;;7.20;2.90;;;-3.20;99.90;;;;;;5029967;28;20820;-67
2022/12/09 00:25:34;;;;;;;5.77;2.63;;;-3.10;99.90;;;;;;5031563;28;20178;-68
2022/12/09 00:28:00;;;;;;;9.43;3.10;;;-3.20;99.90;;;;;;5016082;28;20214;-68
2022/12/09 00:30:25;;;;;;;11.83;3.57;;;-3.20;99.90;;;;;;5028497;28;20193;-69
2022/12/09 00:32:51;;;;;;;14.27;5.10;;;-3.30;99.90;;;;;;5029373;28;20201;-68
2022/12/09 00:35:17;;;;;;;12.57;4.20;;;-3.30;99.90;;;;;;5013551;28;20256;-68
2022/12/09 00:37:42;;;;;;;10.17;4.07;;;-3.30;99.90;;;;;;5031881;28;20324;-69
2022/12/09 00:40:08;;;;;;;11.20;4.57;;;-3.40;99.90;;;;;;5031645;28;20183;-69
2022/12/09 00:42:34;;;;;;;9.20;4.13;;;-3.40;99.90;;;;;;5031573;28;20182;-69
2022/12/09 00:44:59;;;;;;;5.80;2.93;;;-3.40;99.90;;;;;;5031446;28;20429;-69
2022/12/09 00:47:25;;;;;;;6.90;2.87;;;-3.40;99.90;;;;;;5030389;28;20278;-69
2022/12/09 00:49:50;;;;;;;5.10;2.53;;;-3.50;99.90;;;;;;5031054;28;20198;-69
2022/12/09 00:52:16;;;;;;;3.60;2.27;;;-3.50;99.90;;;;;;5030573;28;20182;-69
2022/12/09 00:54:42;;;;;;;6.07;3.27;;;-3.60;99.90;;;;;;5031034;28;20179;-69
2022/12/09 00:57:07;;;;;;;8.57;2.40;;;-3.70;99.90;;;;;;5030902;28;20237;-68
2022/12/09 00:59:33;;;;;;;5.93;2.30;;;-3.70;99.90;;;;;;5031008;28;20757;-69
2022/12/09 01:01:58;;;;;;;5.23;2.33;;;-3.70;99.90;;;;;;5031818;28;20185;-69
2022/12/09 01:04:24;;;;;;;5.00;1.93;;;-3.70;99.90;;;;;;5031848;28;20178;-69
2022/12/09 01:06:50;;;;;;;4.63;1.70;;;-3.60;99.90;;;;;;5032561;28;20217;-68
2022/12/09 01:09:16;;;;;;;3.60;1.80;;;-3.60;99.90;;;;;;5032123;28;20185;-68
2022/12/09 01:11:42;;;;;;;6.03;2.50;;;-3.70;99.90;;;;;;5031164;28;21293;-68
2022/12/09 01:14:08;;;;;;;2.47;1.60;;;-3.80;99.90;;;;;;5032012;28;20987;-68
2022/12/09 01:16:34;;;;;;;4.17;1.60;;;-3.80;99.90;;;;;;5031453;28;20186;-68
2022/12/09 01:19:03;;;;;;;4.40;1.70;;;-3.90;99.90;;;;;;5030596;28;20953;-69
2022/12/09 01:21:29;;;;;;;3.40;1.90;;;-3.80;99.90;;;;;;5031828;28;20483;-68
2022/12/09 01:23:55;;;;;;;3.13;1.67;;;-3.80;99.90;;;;;;5029991;28;20464;-68
2022/12/09 01:26:21;;;;;;;2.40;1.57;;;-3.80;99.90;;;;;;5029414;28;20499;-68
2022/12/09 01:28:51;;;;;;;4.43;2.17;;;-3.80;99.90;;;;;;5030168;28;20191;-69
2022/12/09 01:31:19;;;;;;;3.60;1.73;;;-3.80;99.90;;;;;;5030072;28;20189;-68
2022/12/09 01:33:45;;;;;;;3.30;1.60;;;-3.80;99.90;;;;;;5029288;28;20796;-68
2022/12/09 01:36:14;;;;;;;2.97;1.50;;;-3.80;99.90;;;;;;5031079;28;20531;-69
2022/12/09 01:38:40;;;;;;;3.00;1.47;;;-3.80;99.90;;;;;;5030993;28;20655;-68
2022/12/09 01:41:06;;;;;;;2.97;1.40;;;-3.90;99.90;;;;;;5030161;28;20480;-68
2022/12/09 01:43:32;;;;;;;4.00;1.90;;;-4.00;99.90;;;;;;5030189;28;20262;-68
2022/12/09 01:45:57;;;;;;;3.63;1.43;;;-4.10;99.90;;;;;;5029367;28;20183;-68
2022/12/09 01:48:26;;;;;;;3.60;1.50;;;-4.10;99.90;;;;;;5030483;28;20535;-68
2022/12/09 01:51:02;;;;;;;2.73;1.63;;;-4.20;99.90;;;;;;5030922;28;20194;-68
2022/12/09 01:53:36;;;;;;;3.73;2.63;;;-4.20;99.90;;;;;;5021235;28;20433;-68
2022/12/09 01:56:14;;;;;;;3.60;1.70;;;-4.20;99.90;;;;;;5030784;28;20439;-69
2022/12/09 01:58:40;;;;;;;3.50;1.67;;;-4.30;99.90;;;;;;5026565;28;20464;-69
2022/12/09 02:01:06;;;;;;;2.73;1.60;;;-4.30;99.90;;;;;;5028525;28;20437;-69
2022/12/09 02:03:32;;;;;;;2.63;1.70;;;-4.30;99.90;;;;;;5027607;28;20442;-68
2022/12/09 02:05:57;;;;;;;2.90;1.90;;;-4.20;99.90;;;;;;5026784;28;20475;-69
2022/12/09 02:08:23;;;;;;;4.40;1.73;;;-4.30;99.90;;;;;;5030364;28;20182;-68
2022/12/09 02:11:03;;;;;;;3.50;1.70;;;-4.30;99.90;;;;;;5030727;28;20269;-68
2022/12/09 02:13:40;;;;;;;4.00;2.20;;;-4.20;99.90;;;;;;5027813;28;20190;-68
2022/12/09 02:16:11;;;;;;;3.50;1.80;;;-4.20;99.90;;;;;;5028231;28;20821;-68
2022/12/09 02:18:55;;;;;;;4.27;1.97;;;-4.10;99.90;;;;;;5030324;28;20809;-69
2022/12/09 02:21:48;;;;;;;7.30;2.00;;;-4.20;99.90;;;;;;5030769;28;20416;-68
2022/12/09 02:24:28;;;;;;;4.50;2.10;;;-4.30;99.90;;;;;;5022455;28;20439;-68
2022/12/09 02:27:20;;;;;;;3.30;1.60;;;-4.30;99.90;;;;;;5030880;28;20435;-68
2022/12/09 02:30:03;;;;;;;2.57;1.80;;;-4.20;99.90;;;;;;5028407;28;20429;-69
2022/12/09 02:32:44;;;;;;;2.93;1.90;;;-4.30;99.90;;;;;;5023441;28;20447;-68
2022/12/09 02:35:22;;;;;;;6.17;2.40;;;-4.30;99.90;;;;;;5027685;28;20929;-69
2022/12/09 02:38:03;;;;;;;4.47;2.97;;;-4.30;99.90;;;;;;5027514;28;20432;-68
2022/12/09 02:40:28;;;;;;;3.30;1.90;;;-4.40;99.90;;;;;;5030240;28;20423;-68
2022/12/09 02:42:55;;;;;;;5.07;2.40;;;-4.50;99.90;;;;;;5027941;28;20441;-69
2022/12/09 02:45:23;;;;;;;15.10;3.10;;;-4.50;99.90;;;;;;5030790;28;20737;-68
2022/12/09 02:47:51;;;;;;;4.20;2.60;;;-4.50;99.90;;;;;;5033894;28;20436;-68
2022/12/09 02:50:22;;;;;;;4.97;2.50;;;-4.50;99.90;;;;;;5034856;28;20413;-69
2022/12/09 02:52:50;;;;;;;4.33;2.60;;;-4.50;99.90;;;;;;5034393;28;20420;-69
2022/12/09 02:55:18;;;;;;;6.03;3.00;;;-4.50;99.90;;;;;;5027519;28;20470;-68
2022/12/09 02:57:43;;;;;;;5.90;3.37;;;-4.40;99.90;;;;;;5033368;28;20514;-69
2022/12/09 03:00:14;;;;;;;8.90;4.00;;;-4.40;99.90;;;;;;5034847;28;20503;-68
2022/12/09 03:02:46;;;;;;;2.13;1.33;;;-4.40;99.90;;;;;;5034397;28;20261;-68
2022/12/09 03:05:37;;;;;;;1.23;0.50;;;-4.40;99.90;;;;;;5034476;28;20456;-69
2022/12/09 03:08:39;;;;;;;4.10;1.63;;;-4.30;99.90;;;;;;5034402;28;20440;-69
2022/12/09 03:11:10;;;;;;;2.70;0.70;;;-4.30;99.90;;;;;;5032190;28;20405;-69
2022/12/09 03:13:44;;;;;;;7.10;3.10;;;-4.30;99.90;;;;;;5031183;28;20448;-69
2022/12/09 03:16:29;;;;;;;3.17;2.30;;;-4.30;99.90;;;;;;5033645;28;20416;-68
2022/12/09 03:19:00;;;;;;;4.90;2.50;;;-4.20;99.90;;;;;;5033723;28;20464;-69
2022/12/09 03:21:27;;;;;;;4.93;3.20;;;-4.30;99.90;;;;;;5029811;28;20429;-69
2022/12/09 03:23:55;;;;;;;8.93;2.97;;;-4.40;99.90;;;;;;5030252;28;20438;-68
2022/12/09 03:26:23;;;;;;;4.57;2.90;;;-4.40;99.90;;;;;;5032686;28;20441;-68
2022/12/09 03:28:50;;;;;;;4.00;2.23;;;-4.40;99.90;;;;;;5033650;28;20445;-69
2022/12/09 03:31:20;;;;;;;4.83;2.83;;;-4.40;99.90;;;;;;5022074;28;20936;-68
2022/12/09 03:33:51;;;;;;;7.37;3.27;;;-4.30;99.90;;;;;;5031355;28;20465;-69
2022/12/09 03:36:18;;;;;;;6.53;3.10;;;-4.40;99.90;;;;;;5033608;28;20472;-69
2022/12/09 03:38:46;;;;;;;3.77;2.43;;;-4.30;99.90;;;;;;5031800;28;20961;-68
2022/12/09 03:41:26;;;;;;;3.93;2.20;;;-4.30;99.90;;;;;;5033037;28;20437;-68
2022/12/09 03:44:00;;;;;;;2.93;1.70;;;-4.30;99.90;;;;;;5030648;28;20503;-68
2022/12/09 03:46:28;;;;;;;3.20;2.17;;;-4.40;99.90;;;;;;5025949;28;20420;-68
2022/12/09 03:48:54;;;;;;;9.57;3.10;;;-4.40;99.90;;;;;;5033499;28;20924;-68
2022/12/09 03:51:29;;;;;;;3.80;1.87;;;-4.40;99.90;;;;;;5033969;28;20444;-68
2022/12/09 03:54:04;;;;;;;4.07;2.27;;;-4.40;99.90;;;;;;5032399;28;20178;-68
2022/12/09 03:56:40;;;;;;;5.20;3.03;;;-4.50;99.90;;;;;;5025198;28;20478;-68
2022/12/09 03:59:14;;;;;;;6.63;3.47;;;-4.50;99.90;;;;;;5032577;28;20483;-69
2022/12/09 04:01:42;;;;;;;4.60;2.80;;;-4.60;99.90;;;;;;5030253;28;20421;-69
2022/12/09 04:04:09;;;;;;;4.87;2.00;;;-4.60;99.90;;;;;;5032266;28;20746;-69
2022/12/09 04:06:34;;;;;;;6.83;3.30;;;-4.60;99.90;;;;;;5032088;28;20428;-70
2022/12/09 04:09:00;;;;;;;5.03;2.50;;;-4.50;99.90;;;;;;5033258;28;20437;-69
2022/12/09 04:11:26;;;;;;;7.20;2.90;;;-4.50;99.90;;;;;;5032709;28;20550;-69
2022/12/09 04:13:51;;;;;;;9.77;3.33;;;-4.40;99.90;;;;;;5033945;28;20653;-69
2022/12/09 04:16:17;;;;;;;13.30;4.37;;;-4.30;99.90;;;;;;5033572;28;20191;-69
2022/12/09 04:18:42;;;;;;;8.87;4.53;;;-4.30;99.90;;;;;;5032237;28;20595;-69
2022/12/09 04:21:10;;;;;;;10.03;3.17;;;-4.20;99.90;;;;;;5033340;28;20206;-69
2022/12/09 04:23:36;;;;;;;5.53;2.90;;;-4.30;99.90;;;;;;5030712;28;20186;-69
2022/12/09 04:26:02;;;;;;;7.50;2.57;;;-4.30;99.90;;;;;;5031694;28;20765;-69
2022/12/09 04:28:27;;;;;;;6.77;3.80;;;-4.30;99.90;;;;;;5032339;28;20182;-69
2022/12/09 04:30:53;;;;;;;6.90;2.43;;;-4.30;99.90;;;;;;5030817;28;20433;-69
2022/12/09 04:33:19;;;;;;;1.00;0.40;;;-4.40;99.90;;;;;;5027157;28;21568;-69
2022/12/09 04:35:44;;;;;;;7.67;2.90;;;-4.30;99.90;;;;;;5030778;28;20888;-69
2022/12/09 04:38:10;;;;;;;4.97;3.13;;;-4.20;99.90;;;;;;5030743;28;20214;-69
2022/12/09 04:40:36;;;;;;;1.00;0.40;;;-4.20;99.90;;;;;;5032340;28;20318;-69
2022/12/09 04:43:02;;;;;;;1.00;0.40;;;-4.20;99.90;;;;;;5029785;28;20179;-69
2022/12/09 04:45:27;;;;;;;11.43;4.13;;;-4.10;99.90;;;;;;5031080;28;20439;-69
2022/12/09 04:47:53;;;;;;;5.63;2.97;;;-4.00;99.90;;;;;;5030367;28;20170;-69
2022/12/09 04:50:18;;;;;;;5.40;3.70;;;-4.00;99.90;;;;;;5032031;28;20187;-69
2022/12/09 04:52:44;;;;;;;8.83;3.90;;;-4.00;99.90;;;;;;5030020;28;20527;-70
2022/12/09 04:55:12;;;;;;;1.10;0.40;;;-4.00;99.90;;;;;;5031236;28;20194;-69
2022/12/09 04:57:38;;;;;;;1.00;0.40;;;-4.10;99.90;;;;;;5028073;28;20220;-69
2022/12/09 05:00:05;;;;;;;1.00;0.40;;;-4.10;99.90;;;;;;5031633;28;20556;-69
2022/12/09 05:02:31;;;;;;;1.70;1.27;;;-4.10;99.90;;;;;;5032024;28;20182;-69
2022/12/09 05:04:56;;;;;;;5.93;2.57;;;-4.00;99.90;;;;;;5031069;28;20426;-69
2022/12/09 05:07:22;;;;;;;5.77;3.07;;;-4.10;99.90;;;;;;5032185;28;20631;-69
2022/12/09 05:09:48;;;;;;;4.77;2.53;;;-4.00;99.90;;;;;;5031539;28;20190;-69
2022/12/09 05:12:13;;;;;;;1.30;0.80;;;-4.00;99.90;;;;;;5030531;28;20198;-69
2022/12/09 05:14:39;;;;;;;1.00;0.47;;;-3.90;99.90;;;;;;5031929;28;20186;-69
2022/12/09 05:17:06;;;;;;;3.73;2.40;;;-3.90;99.90;;;;;;5032161;28;20269;-69
2022/12/09 05:19:31;;;;;;;1.00;0.40;;;-3.80;99.90;;;;;;5030781;28;20205;-69
2022/12/09 05:21:57;;;;;;;3.17;1.70;;;-3.90;99.90;;;;;;5024655;28;20630;-69
2022/12/09 05:24:23;;;;;;;3.07;1.80;;;-3.80;99.90;;;;;;5029402;28;20186;-69
2022/12/09 05:26:49;;;;;;;3.47;2.23;;;-3.80;99.90;;;;;;5029744;28;20183;-69
2022/12/09 05:29:14;;;;;;;4.20;2.30;;;-3.80;99.90;;;;;;5034601;28;20320;-69
2022/12/09 05:31:40;;;;;;;6.53;2.73;;;-3.80;99.90;;;;;;5030130;28;20495;-70
2022/12/09 05:34:06;;;;;;;3.70;2.27;;;-3.80;99.90;;;;;;5029329;28;20202;-69
2022/12/09 05:36:31;;;;;;;5.27;2.63;;;-3.80;99.90;;;;;;5030011;28;20178;-69
2022/12/09 05:38:57;;;;;;;1.83;0.80;;;-3.90;99.90;;;;;;5029934;28;20213;-69
2022/12/09 05:41:23;;;;;;;1.90;0.80;;;-3.90;99.90;;;;;;5031637;28;20178;-69
2022/12/09 05:43:50;;;;;;;4.90;2.67;;;-4.00;99.90;;;;;;5030527;28;20234;-69
2022/12/09 05:46:17;;;;;;;7.17;3.10;;;-4.00;99.90;;;;;;5030395;28;20969;-69
2022/12/09 05:48:43;;;;;;;7.00;3.20;;;-3.90;99.90;;;;;;5029487;28;20429;-69
2022/12/09 05:51:24;;;;;;;4.23;2.83;;;-3.90;99.90;;;;;;5031637;28;20464;-69
2022/12/09 05:53:50;;;;;;;5.30;2.90;;;-3.80;99.90;;;;;;5030456;28;20432;-69
2022/12/09 05:56:17;;;;;;;1.00;0.40;;;-3.80;99.90;;;;;;5030229;28;20436;-69
2022/12/09 05:58:43;;;;;;;6.83;3.07;;;-3.80;99.90;;;;;;5026323;28;20206;-69
2022/12/09 06:01:09;;;;;;;7.73;3.90;;;-3.70;99.90;;;;;;5028773;28;20448;-69
2022/12/09 06:03:35;;;;;;;10.53;4.13;;;-3.70;99.90;;;;;;5028722;28;20190;-70
2022/12/09 06:06:09;;;;;;;12.60;4.80;;;-3.60;99.90;;;;;;5029570;28;20826;-69
2022/12/09 06:08:35;;;;;;;8.93;3.93;;;-3.70;99.90;;;;;;5025612;28;20452;-69
2022/12/09 06:11:01;;;;;;;3.97;1.50;;;-3.70;99.90;;;;;;5029783;28;20445;-69
2022/12/09 06:13:27;;;;;;;6.97;3.80;;;-3.70;99.90;;;;;;5029990;28;20433;-69
2022/12/09 06:15:52;;;;;;;9.17;4.10;;;-3.70;99.90;;;;;;5031500;28;20452;-69
2022/12/09 06:18:18;;;;;;;7.60;4.00;;;-3.70;99.90;;;;;;5030462;28;20224;-69
2022/12/09 06:20:43;;;;;;;4.33;2.07;;;-3.70;99.90;;;;;;5031668;28;20182;-69
2022/12/09 06:23:09;;;;;;;15.67;6.90;;;-3.60;99.90;;;;;;5030498;28;20197;-69
2022/12/09 06:25:35;;;;;;;11.23;4.97;;;-3.60;99.90;;;;;;5035255;28;20211;-69
2022/12/09 06:28:00;;;;;;;31.17;11.40;;;-3.70;99.90;;;;;;5036868;28;20190;-69
2022/12/09 06:30:26;;;;;;;4.87;2.90;;;-3.70;99.90;;;;;;5034469;28;20218;-69
2022/12/09 06:32:52;;;;;;;20.70;8.37;;;-3.70;99.90;;;;;;5027958;28;20198;-69
2022/12/09 06:35:17;;;;;;;23.33;9.23;;;-3.70;99.90;;;;;;5017937;28;20190;-69
2022/12/09 06:37:43;;;;;;;29.63;11.43;;;-3.70;99.90;;;;;;5035008;28;20734;-70
2022/12/09 06:40:09;;;;;;;16.47;7.50;;;-3.60;99.90;;;;;;5031477;28;20215;-69
2022/12/09 06:42:35;;;;;;;10.67;6.13;;;-3.60;99.90;;;;;;5032638;28;20231;-70
2022/12/09 06:45:00;;;;;;;40.63;15.20;;;-3.50;99.90;;;;;;5031656;28;20445;-70
2022/12/09 06:47:26;;;;;;;5.10;1.50;;;-3.40;99.90;;;;;;5033297;28;20190;-70
2022/12/09 06:49:51;;;;;;;12.73;6.97;;;-3.40;99.90;;;;;;5032617;28;20205;-69
2022/12/09 06:52:17;;;;;;;14.40;5.43;;;-3.40;99.90;;;;;;5032357;28;20679;-69
2022/12/09 06:54:42;;;;;;;8.30;4.57;;;-3.40;99.90;;;;;;5034742;28;20182;-69
2022/12/09 06:57:08;;;;;;;8.73;4.43;;;-3.40;99.90;;;;;;5034355;28;20213;-69
2022/12/09 06:59:34;;;;;;;1.10;0.53;;;-3.40;99.90;;;;;;5034441;28;20675;-69
2022/12/09 07:01:59;;;;;;;6.63;3.77;;;-3.30;99.90;;;;;;5034459;28;20182;-69
2022/12/09 07:04:25;;;;;;;29.87;12.40;;;-3.30;99.90;;;;;;5029845;28;20578;-69
2022/12/09 07:06:50;;;;;;;45.60;15.00;;;-3.20;99.90;;;;;;5034911;28;20210;-69
2022/12/09 07:09:19;;;;;;;44.97;16.90;;;-3.20;99.90;;;;;;5033957;28;20195;-69
2022/12/09 07:11:45;;;;;;;15.37;7.20;;;-3.20;99.90;;;;;;5027257;28;20615;-69
2022/12/09 07:14:12;;;;;;;9.57;4.27;;;-3.10;99.90;;;;;;5029514;28;20452;-70
2022/12/09 07:16:38;;;;;;;31.33;11.10;;;-3.10;99.90;;;;;;5034400;28;20425;-69
2022/12/09 07:19:04;;;;;;;31.53;12.13;;;-3.10;99.90;;;;;;5032834;28;20957;-69
2022/12/09 07:21:30;;;;;;;55.53;16.67;;;-3.10;99.90;;;;;;5032462;28;20409;-69
2022/12/09 07:24:00;;;;;;;47.77;19.07;;;-3.00;99.90;;;;;;5032376;28;20467;-70
2022/12/09 07:26:26;;;;;;;34.57;12.80;;;-3.00;99.90;;;;;;5031910;28;20190;-69
2022/12/09 07:28:51;;;;;;;18.50;8.73;;;-2.90;99.90;;;;;;5028124;28;20480;-69
2022/12/09 07:31:20;;;;;;;14.33;8.20;;;-2.90;99.90;;;;;;5028480;28;20228;-69
2022/12/09 07:33:46;;;;;;;15.10;6.80;;;-2.80;99.90;;;;;;5032533;28;20297;-70
2022/12/09 07:36:12;;;;;;;13.37;6.90;;;-2.80;99.90;;;;;;5032953;28;20516;-69
2022/12/09 07:38:38;;;;;;;10.43;6.43;;;-2.80;99.90;;;;;;5033648;28;21024;-69
2022/12/09 07:41:07;;;;;;;14.30;7.00;;;-2.90;99.90;;;;;;5032925;28;20198;-70
2022/12/09 07:43:34;;;;;;;13.38;6.00;;;-2.80;99.90;;;;;;5031429;28;20592;-69
2022/12/09 07:46:06;;;;;;;12.87;6.80;;;-2.70;99.90;;;;;;5032669;28;20456;-70
2022/12/09 07:48:32;;;;;;;11.17;5.97;;;-2.70;99.90;;;;;;5027795;28;20494;-69
2022/12/09 07:51:02;;;;;;;14.50;5.57;;;-2.60;99.90;;;;;;5031934;28;20482;-69
2022/12/09 07:53:28;;;;;;;7.83;5.20;;;-2.60;99.90;;;;;;5030359;28;20274;-70
2022/12/09 07:55:54;;;;;;;11.47;5.83;;;-2.60;99.90;;;;;;5032131;28;20483;-70
2022/12/09 07:58:20;;;;;;;12.00;5.70;;;-2.60;99.90;;;;;;5033098;28;20512;-70
2022/12/09 08:00:45;;;;;;;8.23;4.20;;;-2.60;99.90;;;;;;5032865;28;20413;-71
2022/12/09 08:03:14;;;;;;;11.43;5.10;;;-2.50;99.90;;;;;;5027221;28;20194;-70
2022/12/09 08:05:50;;;;;;;9.13;4.93;;;-2.50;99.90;;;;;;5029893;28;20221;-70
2022/12/09 08:08:16;;;;;;;11.50;5.27;;;-2.40;99.90;;;;;;5025144;28;20457;-69
2022/12/09 08:10:42;;;;;;;14.77;6.63;;;-2.40;99.90;;;;;;5026020;28;20429;-70
2022/12/09 08:13:07;;;;;;;11.97;6.00;;;-2.30;99.90;;;;;;5030926;28;20228;-70
2022/12/09 08:15:33;;;;;;;16.70;5.60;;;-2.20;99.90;;;;;;5028970;28;20814;-70
2022/12/09 08:17:59;;;;;;;12.87;6.17;;;-2.10;99.90;;;;;;5030613;28;20760;-70
2022/12/09 08:20:24;;;;;;;18.20;6.27;;;-2.00;99.90;;;;;;5031072;28;20218;-70
2022/12/09 08:22:50;;;;;;;6.57;4.07;;;-2.10;99.90;;;;;;5031027;28;20202;-69
2022/12/09 08:25:16;;;;;;;12.43;5.27;;;-2.00;99.90;;;;;;5028903;28;20293;-70
2022/12/09 08:27:41;;;;;;;18.23;7.93;;;-2.00;99.90;;;;;;5026648;28;20709;-70
2022/12/09 08:30:07;;;;;;;17.63;8.00;;;-1.90;99.90;;;;;;5030261;28;20647;-70
2022/12/09 08:32:33;;;;;;;15.67;8.30;;;-1.90;99.90;;;;;;5027334;28;20205;-70
2022/12/09 08:34:59;;;;;;;18.03;7.90;;;-1.90;99.90;;;;;;5027375;28;20444;-70
2022/12/09 08:37:24;;;;;;;10.60;6.13;;;-1.80;99.90;;;;;;5023246;28;20194;-71
2022/12/09 08:39:50;;;;;;;15.83;6.87;;;-1.70;99.90;;;;;;5029195;28;20210;-70
2022/12/09 08:42:16;;;;;;;10.07;5.80;;;-1.60;99.90;;;;;;5023765;28;20191;-71
2022/12/09 08:44:42;;;;;;;14.47;6.00;;;-1.50;99.90;;;;;;5024129;28;20190;-71
2022/12/09 08:47:08;;;;;;;9.50;4.87;;;-1.50;99.90;;;;;;5028136;28;20273;-71
2022/12/09 08:49:33;;;;;;;14.30;6.20;;;-1.50;99.90;;;;;;5031565;28;20550;-71
2022/12/09 08:51:59;;;;;;;11.67;5.97;;;-1.40;99.90;;;;;;5032297;28;20222;-71
2022/12/09 08:54:24;;;;;;;16.43;4.63;;;-1.40;99.90;;;;;;5031410;28;20193;-71
2022/12/09 08:56:53;;;;;;;9.83;5.27;;;-1.40;99.90;;;;;;5030202;28;20187;-71
2022/12/09 08:59:19;;;;;;;7.93;4.73;;;-1.40;99.90;;;;;;5030307;28;20218;-71
2022/12/09 09:01:45;;;;;;;7.73;4.10;;;-1.30;99.90;;;;;;5030895;28;20428;-71
2022/12/09 09:04:16;;;;;;;11.20;5.10;;;-1.30;99.90;;;;;;5028452;28;20792;-70
2022/12/09 09:06:45;;;;;;;13.23;4.93;;;-1.30;99.90;;;;;;5025158;28;20186;-70
2022/12/09 09:09:12;;;;;;;15.90;6.20;;;-1.10;99.90;;;;;;5031049;28;20906;-70
2022/12/09 09:11:39;;;;;;;14.53;6.50;;;-1.10;99.90;;;;;;5024593;28;20445;-71
2022/12/09 09:14:07;;;;;;;11.17;5.87;;;-1.10;99.90;;;;;;5030390;28;20441;-70
2022/12/09 09:16:34;;;;;;;12.70;5.00;;;-1.00;99.90;;;;;;5030251;28;20491;-71
2022/12/09 09:19:01;;;;;;;12.93;6.43;;;-0.90;99.90;;;;;;5030677;28;20476;-73
2022/12/09 09:21:27;;;;;;;12.43;6.20;;;-0.90;99.90;;;;;;5032109;28;20524;-74
2022/12/09 09:23:53;;;;;;;14.00;6.33;;;-0.90;99.90;;;;;;5030962;28;20838;-77
2022/12/09 09:26:22;;;;;;;16.93;8.13;;;-0.90;99.90;;;;;;5023777;28;20233;-65
2022/12/09 09:28:48;;;;;;;10.73;5.37;;;-0.90;99.90;;;;;;5031328;28;20421;-74
2022/12/09 09:31:17;;;;;;;14.23;7.13;;;-0.90;99.90;;;;;;5030710;28;20462;-70
2022/12/09 09:33:43;;;;;;;14.43;7.40;;;-0.90;99.90;;;;;;5029460;28;20915;-75
2022/12/09 09:36:13;;;;;;;10.27;6.00;;;-0.80;99.90;;;;;;5043432;28;20523;-70
2022/12/09 09:38:39;;;;;;;10.63;4.47;;;-0.80;99.90;;;;;;5022419;28;22180;-70
2022/12/09 09:41:21;;;;;;;12.93;5.77;;;-0.80;99.90;;;;;;5026941;28;20460;-70
2022/12/09 09:43:47;;;;;;;7.40;5.13;;;-0.80;99.90;;;;;;5025467;28;20670;-70
2022/12/09 09:46:38;;;;;;;10.13;5.47;;;-0.70;99.90;;;;;;5028273;28;20421;-70
2022/12/09 09:49:11;;;;;;;13.80;6.73;;;-0.70;99.90;;;;;;5028090;28;20183;-70
2022/12/09 09:51:37;;;;;;;11.97;6.07;;;-0.70;99.90;;;;;;5029844;28;20425;-70
2022/12/09 09:54:03;;;;;;;11.33;5.67;;;-0.70;99.90;;;;;;5029954;28;20425;-70
2022/12/09 09:56:54;;;;;;;20.43;6.50;;;-0.60;99.90;;;;;;5025877;28;20445;-70
2022/12/09 09:59:25;;;;;;;15.60;6.27;;;-0.50;99.90;;;;;;5027954;28;20218;-70
2022/12/09 10:02:19;;;;;;;18.53;5.80;;;-0.50;99.90;;;;;;5028585;28;20428;-70
2022/12/09 10:05:06;;;;;;;11.03;6.37;;;-0.40;99.90;;;;;;5000511;28;20981;-69
2022/12/09 10:07:42;;;;;;;9.50;6.33;;;-0.20;99.90;;;;;;5027081;28;20543;-70
2022/12/09 10:10:20;;;;;;;17.10;7.23;;;-0.10;99.90;;;;;;5024579;28;20486;-70
2022/12/09 10:12:53;;;;;;;14.60;7.10;;;-0.10;99.90;;;;;;5022270;28;20499;-70
2022/12/09 10:15:26;;;;;;;11.17;5.47;;;0.10;99.90;;;;;;5026727;28;20441;-70
2022/12/09 10:18:07;;;;;;;16.17;7.37;;;0.10;99.90;;;;;;5020536;28;20467;-70
2022/12/09 10:20:32;;;;;;;15.27;6.37;;;0.20;99.90;;;;;;5029778;28;20503;-70
2022/12/09 10:22:59;;;;;;;11.70;6.80;;;0.20;99.90;;;;;;5027607;28;20913;-70
2022/12/09 10:25:28;;;;;;;11.73;6.00;;;0.20;99.90;;;;;;5029743;28;20289;-70
2022/12/09 10:28:12;;;;;;;13.00;6.50;;;0.30;99.90;;;;;;5025670;28;21036;-70
2022/12/09 10:30:38;;;;;;;17.70;6.10;;;0.30;99.90;;;;;;5029434;28;20419;-70
2022/12/09 10:33:04;;;;;;;15.73;7.07;;;0.40;99.90;;;;;;5028514;28;20507;-71
2022/12/09 10:35:31;;;;;;;15.17;7.87;;;0.40;99.90;;;;;;5029818;28;20824;-70
2022/12/09 10:38:09;;;;;;;15.03;6.57;;;0.50;99.90;;;;;;5025647;28;20212;-70
2022/12/09 10:40:48;;;;;;;15.73;7.83;;;0.50;99.90;;;;;;5023431;28;20867;-70
2022/12/09 10:43:39;;;;;;;15.13;5.83;;;0.50;99.90;;;;;;5027354;28;20894;-70
2022/12/09 10:46:14;;;;;;;10.73;6.03;;;0.50;99.90;;;;;;5027698;28;20429;-70
2022/12/09 10:48:45;;;;;;;14.00;6.70;;;0.40;99.90;;;;;;5027978;28;20512;-69
2022/12/09 10:51:16;;;;;;;13.33;6.33;;;0.40;99.90;;;;;;5030291;28;20424;-68
2022/12/09 10:53:53;;;;;;;14.13;6.20;;;0.50;99.90;;;;;;5013962;28;20500;-68
2022/12/09 10:56:28;;;;;;;25.40;8.63;;;0.50;99.90;;;;;;5028891;28;20872;-68
2022/12/09 10:59:15;;;;;;;16.03;7.57;;;0.50;99.90;;;;;;5025255;28;21201;-68
2022/12/09 11:01:59;;;;;;;22.67;8.50;;;0.50;99.90;;;;;;5027852;28;20436;-68
2022/12/09 11:04:30;;;;;;;21.43;8.10;;;0.50;99.90;;;;;;5017365;28;20436;-68
2022/12/09 11:07:01;;;;;;;19.23;7.37;;;0.60;99.90;;;;;;5031727;28;20555;-67
2022/12/09 11:09:32;;;;;;;21.70;7.07;;;0.60;99.90;;;;;;5031871;28;20461;-68
2022/12/09 11:11:58;;;;;;;14.23;7.50;;;0.60;99.90;;;;;;5030687;28;20433;-68
2022/12/09 11:14:37;;;;;;;15.70;7.87;;;0.60;99.90;;;;;;5031957;28;20912;-68
2022/12/09 11:17:24;;;;;;;15.27;7.23;;;0.70;99.90;;;;;;5032731;28;20420;-68
2022/12/09 11:20:12;;;;;;;15.33;8.10;;;0.60;99.90;;;;;;5029753;28;20452;-68
2022/12/09 11:22:39;;;;;;;13.83;8.00;;;0.60;99.90;;;;;;5019447;28;20433;-69
2022/12/09 11:25:11;;;;;;;20.30;8.83;;;0.60;99.90;;;;;;5033152;28;20878;-68
2022/12/09 11:27:48;;;;;;;12.67;7.00;;;0.50;99.90;;;;;;5033399;28;20417;-68
2022/12/09 11:30:37;;;;;;;19.33;7.07;;;0.60;99.90;;;;;;5033013;28;20424;-68
2022/12/09 11:33:12;;;;;;;15.93;8.20;;;0.60;99.90;;;;;;5029165;28;20417;-68
2022/12/09 11:35:44;;;;;;;18.40;7.47;;;0.60;99.90;;;;;;5032954;28;20905;-68
2022/12/09 11:38:29;;;;;;;13.53;6.43;;;0.70;99.90;;;;;;5026720;28;21046;-68
2022/12/09 11:41:10;;;;;;;1.10;0.60;;;0.80;99.90;;;;;;5025919;28;20412;-68
2022/12/09 11:43:49;;;;;;;16.50;7.03;;;0.80;99.90;;;;;;5030057;28;20778;-68
2022/12/09 11:46:25;;;;;;;19.97;8.30;;;0.70;99.90;;;;;;5031660;28;20953;-68
2022/12/09 11:49:11;;;;;;;17.90;8.70;;;0.70;99.90;;;;;;5022729;28;20978;-68
2022/12/09 11:51:40;;;;;;;14.30;6.97;;;0.70;99.90;;;;;;5024971;28;20440;-68
2022/12/09 11:54:23;;;;;;;14.37;7.10;;;0.80;99.90;;;;;;5032881;28;20425;-69
2022/12/09 11:56:50;;;;;;;12.10;6.40;;;0.80;99.90;;;;;;5030929;28;20495;-68
2022/12/09 11:59:24;;;;;;;10.97;5.63;;;0.80;99.90;;;;;;5031808;28;20468;-68
2022/12/09 12:02:12;;;;;;;13.80;6.90;;;0.90;99.90;;;;;;5032815;28;20401;-69
2022/12/09 12:05:10;;;;;;;15.17;7.93;;;0.80;99.90;;;;;;5032698;28;20441;-69
2022/12/09 12:07:56;;;;;;;16.40;8.87;;;0.80;99.90;;;;;;4995773;28;20444;-68
2022/12/09 12:10:26;;;;;;;18.07;8.20;;;0.80;99.90;;;;;;5031149;28;20444;-68
2022/12/09 12:13:07;;;;;;;15.97;6.43;;;0.70;99.90;;;;;;5031818;28;20429;-68
2022/12/09 12:15:46;;;;;;;17.77;7.30;;;0.80;99.90;;;;;;5031902;28;20532;-68
2022/12/09 12:18:17;;;;;;;14.50;8.23;;;0.80;99.90;;;;;;5025877;28;20441;-69
2022/12/09 12:21:07;;;;;;;14.33;6.93;;;0.70;99.90;;;;;;5030530;28;20476;-69
2022/12/09 12:23:48;;;;;;;16.73;8.63;;;0.80;99.90;;;;;;5020612;28;20437;-69
2022/12/09 12:26:36;;;;;;;16.37;8.10;;;0.70;99.90;;;;;;5030815;28;20432;-69
2022/12/09 12:29:08;;;;;;;14.60;6.63;;;0.70;99.90;;;;;;5012511;28;20903;-69
2022/12/09 12:32:03;;;;;;;17.27;8.37;;;0.80;99.90;;;;;;5024166;28;20527;-68
2022/12/09 12:34:28;;;;;;;18.10;9.03;;;0.80;99.90;;;;;;5014290;28;20940;-68
2022/12/09 12:37:18;;;;;;;23.07;8.53;;;0.80;99.90;;;;;;5031724;28;20452;-70
2022/12/09 12:40:05;;;;;;;13.57;7.87;;;0.70;99.90;;;;;;5029640;28;20198;-69
2022/12/09 12:42:31;;;;;;;20.87;9.77;;;0.70;99.90;;;;;;5027166;28;20574;-69
2022/12/09 12:48:15;;;;;;;17.17;7.50;;;0.70;99.90;;;;;;5027850;28;20184;-69
2022/12/09 12:51:19;;;;;;;21.70;8.20;;;0.60;99.90;;;;;;5027333;28;20475;-69
2022/12/09 12:53:47;;;;;;;25.20;9.50;;;0.60;99.90;;;;;;5030517;28;20425;-69
2022/12/09 12:56:43;;;;;;;18.93;8.37;;;0.70;99.90;;;;;;5031804;28;20440;-69
2022/12/09 12:59:15;;;;;;;19.00;8.03;;;0.70;99.90;;;;;;4994879;28;20472;-70
2022/12/09 13:01:51;;;;;;;15.60;9.10;;;0.80;99.90;;;;;;5027359;28;20444;-69